Time;durP1;ratioP1;P1;durP2;ratioP2;P2;SDS_P1;SDS_P2;PMS_P1;PMS_P2;Temp;Humidity;BMP_temperature;BMP_pressure;BME280_temperature;BME280_humidity;BME280_pressure;Samples;Min_cycle;Max_cycle;Signal;HPM_P1;HPM_P2
2024/01/05 00:02:02;;;;;;;9.52;1.90;;;;;;;;;;5094085;28;20493;-35
2024/01/05 00:04:29;;;;;;;7.50;1.90;;;;;;;;;;5093913;28;20391;-35
2024/01/05 00:06:56;;;;;;;8.73;1.95;;;;;;;;;;5094003;28;20070;-35
2024/01/05 00:09:23;;;;;;;13.05;2.10;;;;;;;;;;5093850;28;20028;-35
2024/01/05 00:11:52;;;;;;;6.93;1.92;;;;;;;;;;5093886;28;20051;-35
2024/01/05 00:14:19;;;;;;;6.78;1.80;;;;;;;;;;5093779;28;20451;-35
2024/01/05 00:16:46;;;;;;;10.10;1.88;;;;;;;;;;5075618;28;20027;-35
2024/01/05 00:19:13;;;;;;;5.45;1.75;;;;;;;;;;5093374;28;20040;-35
2024/01/05 00:21:40;;;;;;;9.98;2.13;;;;;;;;;;5093736;28;20078;-35
2024/01/05 00:24:07;;;;;;;6.65;2.10;;;;;;;;;;5093688;28;20070;-35
2024/01/05 00:26:34;;;;;;;10.48;2.78;;;;;;;;;;5093583;28;20024;-35
2024/01/05 00:29:01;;;;;;;7.00;2.00;;;;;;;;;;5093556;28;20035;-35
2024/01/05 00:31:28;;;;;;;11.43;1.95;;;;;;;;;;5093464;28;20073;-35
2024/01/05 00:33:55;;;;;;;13.50;2.15;;;;;;;;;;5093502;28;20017;-35
2024/01/05 00:36:22;;;;;;;9.35;2.47;;;;;;;;;;5093413;28;20024;-35
2024/01/05 00:38:49;;;;;;;8.40;2.15;;;;;;;;;;5093246;28;20032;-35
2024/01/05 00:41:16;;;;;;;5.70;2.40;;;;;;;;;;5093336;28;20113;-35
2024/01/05 00:43:43;;;;;;;6.50;2.33;;;;;;;;;;5093288;28;20024;-35
2024/01/05 00:46:10;;;;;;;11.18;2.47;;;;;;;;;;5093270;28;20027;-35
2024/01/05 00:48:37;;;;;;;10.23;2.67;;;;;;;;;;5092721;28;20052;-35
2024/01/05 00:51:04;;;;;;;9.18;2.53;;;;;;;;;;5093144;28;20038;-35
2024/01/05 00:53:31;;;;;;;8.88;2.67;;;;;;;;;;5093136;28;20152;-35
2024/01/05 00:55:58;;;;;;;8.55;2.90;;;;;;;;;;5092858;28;20042;-35
2024/01/05 00:58:25;;;;;;;13.77;2.72;;;;;;;;;;5092836;28;20519;-35
2024/01/05 01:00:53;;;;;;;12.15;2.60;;;;;;;;;;5092949;28;20152;-35
2024/01/05 01:03:20;;;;;;;8.60;2.40;;;;;;;;;;5092785;28;20028;-35
2024/01/05 01:05:46;;;;;;;11.00;2.55;;;;;;;;;;5092878;28;20490;-35
2024/01/05 01:08:13;;;;;;;8.32;2.47;;;;;;;;;;5091962;28;20024;-35
2024/01/05 01:10:41;;;;;;;7.20;2.60;;;;;;;;;;5092688;28;20020;-35
2024/01/05 01:13:08;;;;;;;10.15;2.67;;;;;;;;;;5092729;28;20027;-35
2024/01/05 01:15:34;;;;;;;9.23;2.50;;;;;;;;;;5092702;28;20482;-35
2024/01/05 01:18:02;;;;;;;6.55;3.08;;;;;;;;;;5092337;28;20081;-35
2024/01/05 01:20:29;;;;;;;8.80;2.83;;;;;;;;;;5092398;28;20387;-35
2024/01/05 01:22:56;;;;;;;9.23;2.80;;;;;;;;;;5092531;28;20024;-35
2024/01/05 01:25:23;;;;;;;11.35;3.35;;;;;;;;;;5092495;28;20103;-35
2024/01/05 01:27:50;;;;;;;7.53;2.33;;;;;;;;;;5092443;28;20028;-35
2024/01/05 01:30:16;;;;;;;8.68;2.78;;;;;;;;;;5092400;28;20031;-35
2024/01/05 01:32:43;;;;;;;11.27;2.28;;;;;;;;;;5092377;28;20028;-35
2024/01/05 01:35:10;;;;;;;10.55;2.40;;;;;;;;;;5092334;28;20081;-35
2024/01/05 01:37:37;;;;;;;11.57;2.45;;;;;;;;;;5092129;28;20225;-35
2024/01/05 01:40:05;;;;;;;7.38;2.45;;;;;;;;;;5092245;28;20071;-35
2024/01/05 01:42:32;;;;;;;10.93;2.50;;;;;;;;;;5092171;28;20056;-35
2024/01/05 01:44:59;;;;;;;6.28;2.25;;;;;;;;;;5092107;28;20034;-35
2024/01/05 01:47:26;;;;;;;12.98;2.28;;;;;;;;;;5091778;28;20079;-35
2024/01/05 01:49:53;;;;;;;15.15;2.60;;;;;;;;;;5092108;28;20028;-35
2024/01/05 01:52:20;;;;;;;5.90;2.28;;;;;;;;;;5092102;28;20508;-35
2024/01/05 01:54:47;;;;;;;8.65;2.40;;;;;;;;;;5092035;28;20059;-35
2024/01/05 01:57:17;;;;;;;11.00;2.55;;;;;;;;;;5091755;28;20032;-35
2024/01/05 01:59:44;;;;;;;11.52;2.67;;;;;;;;;;5091801;28;20638;-35
2024/01/05 02:02:13;;;;;;;6.65;2.30;;;;;;;;;;5091974;28;20128;-35
2024/01/05 02:04:40;;;;;;;7.03;2.17;;;;;;;;;;5091857;28;20043;-35
2024/01/05 02:07:08;;;;;;;9.40;1.92;;;;;;;;;;5091654;28;20064;-35
2024/01/05 02:09:35;;;;;;;6.55;1.95;;;;;;;;;;5091706;28;20065;-35
2024/01/05 02:12:02;;;;;;;7.28;2.15;;;;;;;;;;5073609;28;20374;-35
2024/01/05 02:14:29;;;;;;;8.63;2.10;;;;;;;;;;5091823;28;20032;-35
2024/01/05 02:16:56;;;;;;;11.57;2.33;;;;;;;;;;5091290;28;20048;-35
2024/01/05 02:19:23;;;;;;;10.45;2.63;;;;;;;;;;5092338;28;20031;-35
2024/01/05 02:21:51;;;;;;;4.78;2.00;;;;;;;;;;5098425;28;20501;-35
2024/01/05 02:24:18;;;;;;;13.48;2.10;;;;;;;;;;5098490;28;20115;-35
2024/01/05 02:26:45;;;;;;;9.15;2.03;;;;;;;;;;5098405;28;20025;-35
2024/01/05 02:29:13;;;;;;;7.00;2.00;;;;;;;;;;5098261;28;20404;-35
2024/01/05 02:31:41;;;;;;;3.70;1.80;;;;;;;;;;5098210;28;20115;-35
2024/01/05 02:34:08;;;;;;;7.88;2.08;;;;;;;;;;5098292;28;20048;-35
2024/01/05 02:36:34;;;;;;;8.70;2.03;;;;;;;;;;5098326;28;20509;-35
2024/01/05 02:39:02;;;;;;;8.20;2.20;;;;;;;;;;5098159;28;20039;-35
2024/01/05 02:41:28;;;;;;;5.25;1.80;;;;;;;;;;5098163;28;20040;-35
2024/01/05 02:43:55;;;;;;;5.65;2.10;;;;;;;;;;5098303;28;20486;-35
2024/01/05 02:46:23;;;;;;;6.05;1.90;;;;;;;;;;5097503;28;20515;-35
2024/01/05 02:48:49;;;;;;;10.90;2.40;;;;;;;;;;5096875;28;20051;-35
2024/01/05 02:51:16;;;;;;;12.80;2.10;;;;;;;;;;5092728;28;20567;-35
2024/01/05 02:53:43;;;;;;;9.43;1.90;;;;;;;;;;5094594;28;20719;-35
2024/01/05 02:56:19;;;;;;;10.00;1.85;;;;;;;;;;5082182;28;20505;-36
2024/01/05 02:58:46;;;;;;;15.80;2.47;;;;;;;;;;5081202;28;20028;-43
2024/01/05 03:01:17;;;;;;;13.70;1.75;;;;;;;;;;5095837;28;20032;-46
2024/01/05 03:03:47;;;;;;;18.85;2.75;;;;;;;;;;5094823;28;20028;-43
2024/01/05 03:06:18;;;;;;;19.30;2.28;;;;;;;;;;5086763;28;20043;-40
2024/01/05 03:08:45;;;;;;;15.27;1.90;;;;;;;;;;5090440;28;20032;-44
2024/01/05 03:11:12;;;;;;;12.05;1.95;;;;;;;;;;5086998;28;20035;-43
2024/01/05 03:13:39;;;;;;;11.80;2.20;;;;;;;;;;5092690;28;20035;-48
2024/01/05 03:16:06;;;;;;;13.55;2.00;;;;;;;;;;5096140;28;20085;-41
2024/01/05 03:18:33;;;;;;;9.77;1.67;;;;;;;;;;5095690;28;20075;-43
2024/01/05 03:21:01;;;;;;;14.73;2.10;;;;;;;;;;5095391;28;20031;-43
2024/01/05 03:23:28;;;;;;;11.50;1.77;;;;;;;;;;5077759;28;20032;-39
2024/01/05 03:25:56;;;;;;;12.93;1.63;;;;;;;;;;5096076;28;20028;-40
2024/01/05 03:28:24;;;;;;;12.00;2.08;;;;;;;;;;5094413;28;20067;-44
2024/01/05 03:30:51;;;;;;;14.38;2.35;;;;;;;;;;5095627;28;20036;-47
2024/01/05 03:33:20;;;;;;;9.95;1.85;;;;;;;;;;5092659;28;20443;-43
2024/01/05 03:35:47;;;;;;;10.48;1.88;;;;;;;;;;5092483;28;20432;-45
2024/01/05 03:38:14;;;;;;;11.77;1.83;;;;;;;;;;5092564;28;20040;-43
2024/01/05 03:40:41;;;;;;;10.00;1.90;;;;;;;;;;5092997;28;20100;-40
2024/01/05 03:43:08;;;;;;;9.25;1.90;;;;;;;;;;5092979;28;20108;-40
2024/01/05 03:45:35;;;;;;;7.07;1.63;;;;;;;;;;5093243;28;20036;-41
2024/01/05 03:48:02;;;;;;;12.65;1.85;;;;;;;;;;5092348;28;20048;-42
2024/01/05 03:50:29;;;;;;;13.02;1.67;;;;;;;;;;5093421;28;20031;-46
2024/01/05 03:52:56;;;;;;;9.88;1.63;;;;;;;;;;5093285;28;20036;-40
2024/01/05 03:55:23;;;;;;;8.68;1.70;;;;;;;;;;5094175;28;20028;-41
2024/01/05 03:57:49;;;;;;;9.75;2.00;;;;;;;;;;5093767;28;20038;-42
2024/01/05 04:00:17;;;;;;;14.43;1.92;;;;;;;;;;5094074;28;20028;-42
2024/01/05 04:02:44;;;;;;;11.35;2.25;;;;;;;;;;5093935;28;20315;-47
2024/01/05 04:05:11;;;;;;;7.40;1.75;;;;;;;;;;5093935;28;20052;-50
2024/01/05 04:07:38;;;;;;;8.10;1.77;;;;;;;;;;5093944;28;20024;-41
2024/01/05 04:10:06;;;;;;;7.68;1.40;;;;;;;;;;5093482;28;20031;-41
2024/01/05 04:12:33;;;;;;;10.48;1.70;;;;;;;;;;5092979;28;20032;-41
2024/01/05 04:15:00;;;;;;;9.05;1.90;;;;;;;;;;5092982;28;20025;-41
2024/01/05 04:17:27;;;;;;;9.93;1.73;;;;;;;;;;5093521;28;20027;-49
2024/01/05 04:19:54;;;;;;;7.30;1.60;;;;;;;;;;5093743;28;20497;-47
2024/01/05 04:22:21;;;;;;;13.95;1.90;;;;;;;;;;5093627;28;20051;-42
2024/01/05 04:24:48;;;;;;;14.88;1.92;;;;;;;;;;5093441;28;20055;-41
2024/01/05 04:27:15;;;;;;;9.57;1.65;;;;;;;;;;5093365;28;20677;-45
2024/01/05 04:29:43;;;;;;;8.27;1.50;;;;;;;;;;5075340;28;20089;-49
2024/01/05 04:32:10;;;;;;;11.05;1.58;;;;;;;;;;5093423;28;20123;-44
2024/01/05 04:34:37;;;;;;;13.65;2.17;;;;;;;;;;5093361;28;20032;-44
2024/01/05 04:37:04;;;;;;;9.32;2.00;;;;;;;;;;5093184;28;20048;-50
2024/01/05 04:39:31;;;;;;;10.85;1.65;;;;;;;;;;5093092;28;20060;-46
2024/01/05 04:41:58;;;;;;;9.25;1.70;;;;;;;;;;5093074;28;20115;-50
2024/01/05 04:44:25;;;;;;;14.73;2.88;;;;;;;;;;5091896;28;20032;-47
2024/01/05 04:46:52;;;;;;;26.63;2.55;;;;;;;;;;5092956;28;20040;-48
2024/01/05 04:49:19;;;;;;;21.15;2.17;;;;;;;;;;5093127;28;20093;-41
2024/01/05 04:51:46;;;;;;;21.60;2.65;;;;;;;;;;5092213;28;20023;-45
2024/01/05 04:54:13;;;;;;;19.00;2.55;;;;;;;;;;5092134;28;20028;-41
2024/01/05 04:56:40;;;;;;;17.27;1.92;;;;;;;;;;5092864;28;20093;-41
2024/01/05 04:59:08;;;;;;;41.95;4.05;;;;;;;;;;5092856;28;20477;-41
2024/01/05 05:01:35;;;;;;;33.47;2.95;;;;;;;;;;5092931;28;20149;-41
2024/01/05 05:04:02;;;;;;;28.08;2.78;;;;;;;;;;5092483;28;20140;-44
2024/01/05 05:06:29;;;;;;;33.63;3.05;;;;;;;;;;5092198;28;20028;-41
2024/01/05 05:08:56;;;;;;;24.30;2.50;;;;;;;;;;5091984;28;20027;-41
2024/01/05 05:11:23;;;;;;;30.20;2.75;;;;;;;;;;5092101;28;20035;-43
2024/01/05 05:13:50;;;;;;;27.73;2.53;;;;;;;;;;5092746;28;20024;-42
2024/01/05 05:16:17;;;;;;;28.10;2.53;;;;;;;;;;5092409;28;20039;-47
2024/01/05 05:18:45;;;;;;;24.60;2.50;;;;;;;;;;5092315;28;20040;-45
2024/01/05 05:21:12;;;;;;;30.58;3.03;;;;;;;;;;5092404;28;20162;-42
2024/01/05 05:23:39;;;;;;;26.20;2.65;;;;;;;;;;5092473;28;20021;-44
2024/01/05 05:26:06;;;;;;;26.98;3.33;;;;;;;;;;5092267;28;20692;-43
2024/01/05 05:28:37;;;;;;;33.97;3.17;;;;;;;;;;5092323;28;20032;-46
2024/01/05 05:31:06;;;;;;;19.08;2.72;;;;;;;;;;5092726;28;20366;-45
2024/01/05 05:33:33;;;;;;;29.70;2.55;;;;;;;;;;5092353;28;20035;-45
2024/01/05 05:36:00;;;;;;;21.08;2.33;;;;;;;;;;5091936;28;20028;-44
2024/01/05 05:38:27;;;;;;;16.42;2.35;;;;;;;;;;5092060;28;20509;-45
2024/01/05 05:40:54;;;;;;;16.42;2.63;;;;;;;;;;5092174;28;20239;-44
2024/01/05 05:43:21;;;;;;;22.02;2.65;;;;;;;;;;5092206;28;20035;-45
2024/01/05 05:45:48;;;;;;;10.38;2.00;;;;;;;;;;5092097;28;20035;-44
2024/01/05 05:48:15;;;;;;;16.10;2.30;;;;;;;;;;5091193;28;20052;-42
2024/01/05 05:50:42;;;;;;;25.00;2.42;;;;;;;;;;5073896;28;20035;-42
2024/01/05 05:53:10;;;;;;;15.93;2.08;;;;;;;;;;5092099;28;20024;-43
2024/01/05 05:55:37;;;;;;;13.85;2.10;;;;;;;;;;5090944;28;20036;-43
2024/01/05 05:58:04;;;;;;;17.88;2.63;;;;;;;;;;5091419;28;20035;-45
2024/01/05 06:00:30;;;;;;;30.63;2.80;;;;;;;;;;5091359;28;20073;-41
2024/01/05 06:02:57;;;;;;;16.92;2.95;;;;;;;;;;5089951;28;20516;-41
2024/01/05 06:05:24;;;;;;;12.40;1.90;;;;;;;;;;5091307;28;20039;-43
2024/01/05 06:07:51;;;;;;;16.48;1.75;;;;;;;;;;5091487;28;20036;-43
2024/01/05 06:10:18;;;;;;;21.33;2.40;;;;;;;;;;5091687;28;20392;-46
2024/01/05 06:12:45;;;;;;;17.73;2.20;;;;;;;;;;5091900;28;20393;-46
2024/01/05 06:15:12;;;;;;;14.48;2.17;;;;;;;;;;5091763;28;20031;-43
2024/01/05 06:17:39;;;;;;;9.40;2.10;;;;;;;;;;5090934;28;20032;-47
2024/01/05 06:20:08;;;;;;;17.73;2.33;;;;;;;;;;5091220;28;20047;-45
2024/01/05 06:22:35;;;;;;;21.58;2.38;;;;;;;;;;5090648;28;20040;-44
2024/01/05 06:25:02;;;;;;;20.45;2.25;;;;;;;;;;5088400;28;20059;-45
2024/01/05 06:27:28;;;;;;;18.08;2.10;;;;;;;;;;5091487;28;20032;-47
2024/01/05 06:29:56;;;;;;;15.13;1.83;;;;;;;;;;5091608;28;20043;-42
2024/01/05 06:32:23;;;;;;;14.43;1.70;;;;;;;;;;5091660;28;20035;-43
2024/01/05 06:34:50;;;;;;;14.13;1.95;;;;;;;;;;5090972;28;20028;-45
2024/01/05 06:37:17;;;;;;;13.88;1.67;;;;;;;;;;5091412;28;20032;-42
2024/01/05 06:39:44;;;;;;;19.05;2.05;;;;;;;;;;5091461;28;20522;-43
2024/01/05 06:42:14;;;;;;;10.82;1.70;;;;;;;;;;5091294;28;20386;-41
2024/01/05 06:44:43;;;;;;;15.90;1.70;;;;;;;;;;5090420;28;20040;-42
2024/01/05 06:47:13;;;;;;;14.35;1.92;;;;;;;;;;5087152;28;20136;-43
2024/01/05 06:49:42;;;;;;;11.85;1.25;;;;;;;;;;5090812;28;20500;-43
2024/01/05 06:52:12;;;;;;;14.52;1.58;;;;;;;;;;5090961;28;20028;-43
2024/01/05 06:54:43;;;;;;;10.55;1.10;;;;;;;;;;5090913;28;20028;-42
2024/01/05 06:57:12;;;;;;;17.27;1.30;;;;;;;;;;5091099;28;20128;-43
2024/01/05 06:59:42;;;;;;;11.25;1.27;;;;;;;;;;5091082;28;20031;-43
2024/01/05 07:02:12;;;;;;;10.10;1.17;;;;;;;;;;5091178;28;20066;-42
2024/01/05 07:04:43;;;;;;;8.80;1.20;;;;;;;;;;5091338;28;20031;-42
2024/01/05 07:07:13;;;;;;;6.47;1.10;;;;;;;;;;5092678;28;20470;-42
2024/01/05 07:09:43;;;;;;;7.55;0.80;;;;;;;;;;5095048;28;20497;-43
2024/01/05 07:12:13;;;;;;;7.18;1.00;;;;;;;;;;5095027;28;20050;-43
2024/01/05 07:14:43;;;;;;;9.85;0.80;;;;;;;;;;5094987;28;20109;-44
2024/01/05 07:17:14;;;;;;;4.88;0.90;;;;;;;;;;5094893;28;20128;-43
2024/01/05 07:19:44;;;;;;;2.80;0.77;;;;;;;;;;5094785;28;20028;-42
2024/01/05 07:22:11;;;;;;;2.80;0.60;;;;;;;;;;5094505;28;20032;-43
2024/01/05 07:24:40;;;;;;;4.50;0.88;;;;;;;;;;5094786;28;20054;-42
2024/01/05 07:27:10;;;;;;;6.53;0.70;;;;;;;;;;5094720;28;20032;-44
2024/01/05 07:29:42;;;;;;;5.35;0.80;;;;;;;;;;5094250;28;20036;-43
2024/01/05 07:32:12;;;;;;;3.65;0.80;;;;;;;;;;5094734;28;20028;-42
2024/01/05 07:34:41;;;;;;;2.70;0.98;;;;;;;;;;5094559;28;20081;-42
2024/01/05 07:37:11;;;;;;;2.80;0.85;;;;;;;;;;5094532;28;20035;-43
2024/01/05 07:39:41;;;;;;;3.50;0.75;;;;;;;;;;5094365;28;20082;-42
2024/01/05 07:42:10;;;;;;;3.60;0.68;;;;;;;;;;5094431;28;20028;-42
2024/01/05 07:44:40;;;;;;;1.73;0.50;;;;;;;;;;5094497;28;20028;-43
2024/01/05 07:47:12;;;;;;;3.92;0.60;;;;;;;;;;5093847;28;20647;-42
2024/01/05 07:49:43;;;;;;;7.68;0.70;;;;;;;;;;5094314;28;20469;-42
2024/01/05 07:52:13;;;;;;;3.33;0.55;;;;;;;;;;5093877;28;20485;-42
2024/01/05 07:54:43;;;;;;;4.57;0.60;;;;;;;;;;5094313;28;20103;-42
2024/01/05 07:57:10;;;;;;;5.10;0.40;;;;;;;;;;5093984;28;20035;-42
2024/01/05 07:59:37;;;;;;;2.78;0.50;;;;;;;;;;5094015;28;20042;-42
2024/01/05 08:02:04;;;;;;;3.92;0.57;;;;;;;;;;5094188;28;20028;-43
2024/01/05 08:04:31;;;;;;;9.00;0.75;;;;;;;;;;5094076;28;20505;-42
2024/01/05 08:07:01;;;;;;;3.03;0.40;;;;;;;;;;5093834;28;20024;-42
2024/01/05 08:09:32;;;;;;;2.85;0.50;;;;;;;;;;5093764;28;20036;-42
2024/01/05 08:12:02;;;;;;;1.00;0.43;;;;;;;;;;5093526;28;20103;-42
2024/01/05 08:14:31;;;;;;;0.98;0.50;;;;;;;;;;5093832;28;20020;-43
2024/01/05 08:17:02;;;;;;;2.20;0.52;;;;;;;;;;5093674;28;20474;-43
2024/01/05 08:19:31;;;;;;;1.30;0.40;;;;;;;;;;5093385;28;20032;-42
2024/01/05 08:22:01;;;;;;;2.72;0.40;;;;;;;;;;5093588;28;20032;-42
2024/01/05 08:24:28;;;;;;;4.13;0.63;;;;;;;;;;5093668;28;20025;-42
2024/01/05 08:26:56;;;;;;;4.53;0.40;;;;;;;;;;5093535;28;20048;-42
2024/01/05 08:29:23;;;;;;;2.13;0.60;;;;;;;;;;5093588;28;20073;-42
2024/01/05 08:31:51;;;;;;;2.58;0.60;;;;;;;;;;5093505;28;20046;-42
2024/01/05 08:34:18;;;;;;;1.00;0.50;;;;;;;;;;5093359;28;20035;-43
2024/01/05 08:36:45;;;;;;;1.35;0.50;;;;;;;;;;5093276;28;20096;-42
2024/01/05 08:39:12;;;;;;;0.65;0.40;;;;;;;;;;5093114;28;20032;-42
2024/01/05 08:41:43;;;;;;;2.38;0.45;;;;;;;;;;5093188;28;20513;-43
2024/01/05 08:44:10;;;;;;;1.13;0.50;;;;;;;;;;5093367;28;20031;-42
2024/01/05 08:46:37;;;;;;;2.03;0.50;;;;;;;;;;5093073;28;20036;-42
2024/01/05 08:49:04;;;;;;;2.22;0.50;;;;;;;;;;5093021;28;20040;-42
2024/01/05 08:51:32;;;;;;;1.45;0.60;;;;;;;;;;5093095;28;20505;-44
2024/01/05 08:54:01;;;;;;;4.90;0.57;;;;;;;;;;5092947;28;20039;-42
2024/01/05 08:56:28;;;;;;;1.52;0.50;;;;;;;;;;5092795;28;20054;-43
2024/01/05 08:58:56;;;;;;;1.65;0.43;;;;;;;;;;5092888;28;20028;-42
2024/01/05 09:01:23;;;;;;;4.90;0.70;;;;;;;;;;5092732;28;20410;-42
2024/01/05 09:03:50;;;;;;;2.42;0.65;;;;;;;;;;5092707;28;20042;-42
2024/01/05 09:06:18;;;;;;;2.17;0.65;;;;;;;;;;5091837;28;20059;-42
2024/01/05 09:08:45;;;;;;;5.03;0.70;;;;;;;;;;5092612;28;20539;-42
2024/01/05 09:11:12;;;;;;;4.30;0.75;;;;;;;;;;5092730;28;20027;-42
2024/01/05 09:13:39;;;;;;;4.47;0.90;;;;;;;;;;5092669;28;20036;-42
2024/01/05 09:16:06;;;;;;;2.85;0.90;;;;;;;;;;5092648;28;20028;-42
2024/01/05 09:18:36;;;;;;;4.35;0.88;;;;;;;;;;5092521;28;20028;-42
2024/01/05 09:21:06;;;;;;;3.97;0.80;;;;;;;;;;5092647;28;20058;-42
2024/01/05 09:23:33;;;;;;;8.27;0.93;;;;;;;;;;5092447;28;20035;-42
2024/01/05 09:26:00;;;;;;;4.47;0.82;;;;;;;;;;5092531;28;20035;-43
2024/01/05 09:28:27;;;;;;;6.47;0.70;;;;;;;;;;5092289;28;20032;-42
2024/01/05 09:30:54;;;;;;;2.35;0.93;;;;;;;;;;5092108;28;20399;-42
2024/01/05 09:33:21;;;;;;;7.00;0.80;;;;;;;;;;5092299;28;20091;-42
2024/01/05 09:35:48;;;;;;;2.42;0.60;;;;;;;;;;5092302;28;20052;-43
2024/01/05 09:38:15;;;;;;;2.08;0.60;;;;;;;;;;5092089;28;20081;-42
2024/01/05 09:40:42;;;;;;;5.55;0.85;;;;;;;;;;5092250;28;20028;-42
2024/01/05 09:43:09;;;;;;;2.75;0.60;;;;;;;;;;5092125;28;20036;-43
2024/01/05 09:45:37;;;;;;;5.13;0.60;;;;;;;;;;5092188;28;20442;-42
2024/01/05 09:48:04;;;;;;;1.50;0.50;;;;;;;;;;5091957;28;20346;-42
2024/01/05 09:50:31;;;;;;;6.97;0.60;;;;;;;;;;5091914;28;20386;-42
2024/01/05 09:52:58;;;;;;;3.78;0.50;;;;;;;;;;5092141;28;20098;-43
2024/01/05 09:55:25;;;;;;;4.38;0.68;;;;;;;;;;5091916;28;20042;-42
2024/01/05 09:57:53;;;;;;;3.75;0.57;;;;;;;;;;5091771;28;20028;-43
2024/01/05 10:00:20;;;;;;;7.47;0.98;;;;;;;;;;5073673;28;20036;-42
2024/01/05 10:02:59;;;;;;;3.95;0.65;;;;;;;;;;5091771;28;20036;-42
2024/01/05 10:05:26;;;;;;;4.18;0.90;;;;;;;;;;5091585;28;20032;-45
2024/01/05 10:07:53;;;;;;;9.75;0.90;;;;;;;;;;5091806;28;20061;-43
2024/01/05 10:10:20;;;;;;;1.27;0.55;;;;;;;;;;5091716;28;20040;-43
2024/01/05 10:12:47;;;;;;;4.38;0.80;;;;;;;;;;5091599;28;20393;-42
2024/01/05 10:15:14;;;;;;;2.83;0.50;;;;;;;;;;5091678;28;20028;-43
2024/01/05 10:17:41;;;;;;;5.72;0.60;;;;;;;;;;5091550;28;20478;-42
2024/01/05 10:20:16;;;;;;;7.35;0.60;;;;;;;;;;5091600;28;20036;-42
2024/01/05 10:22:49;;;;;;;3.47;0.55;;;;;;;;;;5091756;28;20020;-42
2024/01/05 10:25:16;;;;;;;4.45;0.52;;;;;;;;;;5091291;28;20031;-43
2024/01/05 10:27:44;;;;;;;14.45;1.20;;;;;;;;;;5091560;28;20043;-43
2024/01/05 10:30:11;;;;;;;11.93;1.02;;;;;;;;;;5090284;28;20103;-42
2024/01/05 10:32:38;;;;;;;7.80;0.90;;;;;;;;;;5090897;28;20028;-42
2024/01/05 10:35:09;;;;;;;5.70;0.73;;;;;;;;;;5090674;28;20028;-43
2024/01/05 10:37:36;;;;;;;9.93;0.65;;;;;;;;;;5090417;28;20028;-43
2024/01/05 10:40:04;;;;;;;14.68;1.10;;;;;;;;;;5090670;28;20028;-43
2024/01/05 10:42:32;;;;;;;7.15;1.10;;;;;;;;;;5093955;28;20432;-42
2024/01/05 10:45:01;;;;;;;11.98;0.80;;;;;;;;;;5094586;28;20032;-43
2024/01/05 10:47:31;;;;;;;11.90;0.90;;;;;;;;;;5091902;28;20052;-42
2024/01/05 10:49:59;;;;;;;5.13;0.95;;;;;;;;;;5094268;28;20490;-45
2024/01/05 10:52:32;;;;;;;9.40;1.40;;;;;;;;;;5076436;28;20067;-46
2024/01/05 10:55:03;;;;;;;13.20;1.10;;;;;;;;;;5092795;28;20032;-44
2024/01/05 10:57:31;;;;;;;7.40;1.08;;;;;;;;;;5094884;28;20129;-45
2024/01/05 10:59:58;;;;;;;14.98;1.33;;;;;;;;;;5095090;28;20120;-45
2024/01/05 11:02:39;;;;;;;7.47;1.20;;;;;;;;;;5095148;28;20030;-46
2024/01/05 11:05:10;;;;;;;13.63;1.17;;;;;;;;;;5095096;28;20486;-44
2024/01/05 11:07:37;;;;;;;15.52;1.48;;;;;;;;;;5095082;28;20059;-44
2024/01/05 11:10:04;;;;;;;16.88;1.73;;;;;;;;;;5079755;28;20067;-42
2024/01/05 11:12:34;;;;;;;16.08;1.48;;;;;;;;;;5093254;28;20028;-42
2024/01/05 11:15:04;;;;;;;55.80;4.18;;;;;;;;;;5090508;28;20470;-42
2024/01/05 11:17:58;;;;;;;59.95;4.80;;;;;;;;;;5093990;28;20044;-55
2024/01/05 11:20:48;;;;;;;19.02;2.40;;;;;;;;;;5091752;28;20036;-44
2024/01/05 11:23:15;;;;;;;26.77;2.00;;;;;;;;;;5092488;28;20482;-41
2024/01/05 11:25:44;;;;;;;25.00;2.25;;;;;;;;;;5094102;28;20558;-42
2024/01/05 11:28:30;;;;;;;35.03;3.13;;;;;;;;;;5092966;28;20388;-46
2024/01/05 11:30:57;;;;;;;23.50;2.28;;;;;;;;;;5071803;28;20202;-43
2024/01/05 11:33:46;;;;;;;33.10;2.05;;;;;;;;;;5082868;28;20766;-46
2024/01/05 11:36:13;;;;;;;16.35;2.05;;;;;;;;;;5082843;28;20024;-41
2024/01/05 11:38:44;;;;;;;191.32;10.70;;;;;;;;;;5083179;28;20043;-40
2024/01/05 11:41:18;;;;;;;19.30;2.13;;;;;;;;;;5075526;28;20051;-42
2024/01/05 11:43:45;;;;;;;233.10;22.63;;;;;;;;;;5094283;28;20028;-41
2024/01/05 11:46:13;;;;;;;423.15;42.35;;;;;;;;;;5092609;28;20058;-40
2024/01/05 11:48:40;;;;;;;185.10;19.23;;;;;;;;;;5089728;28;20059;-41
2024/01/05 11:51:08;;;;;;;110.55;13.63;;;;;;;;;;5073503;28;20123;-42
2024/01/05 11:53:35;;;;;;;78.15;8.30;;;;;;;;;;5072476;28;20134;-40
2024/01/05 11:56:15;;;;;;;34.10;3.42;;;;;;;;;;5073675;28;20037;-41
2024/01/05 11:58:43;;;;;;;22.48;2.80;;;;;;;;;;5071974;28;20033;-45
2024/01/05 12:01:11;;;;;;;25.85;2.88;;;;;;;;;;5073689;28;20119;-44
2024/01/05 12:03:38;;;;;;;94.28;7.10;;;;;;;;;;5073779;28;20029;-44
2024/01/05 12:06:06;;;;;;;91.95;7.50;;;;;;;;;;5073658;28;20607;-43
2024/01/05 12:08:33;;;;;;;75.03;6.43;;;;;;;;;;5073482;28;20399;-44
2024/01/05 12:11:02;;;;;;;118.63;10.63;;;;;;;;;;5073609;28;20029;-44
2024/01/05 12:13:30;;;;;;;131.90;11.88;;;;;;;;;;5073772;28;20025;-44
2024/01/05 12:15:58;;;;;;;92.60;9.02;;;;;;;;;;5073585;28;20035;-43
2024/01/05 12:18:26;;;;;;;82.15;7.15;;;;;;;;;;5073549;28;20039;-44
2024/01/05 12:21:03;;;;;;;50.13;5.35;;;;;;;;;;5073476;28;20709;-43
2024/01/05 12:23:31;;;;;;;40.42;4.68;;;;;;;;;;5073388;28;20526;-43
2024/01/05 12:26:03;;;;;;;26.77;3.60;;;;;;;;;;5073263;28;20100;-44
2024/01/05 12:28:31;;;;;;;18.05;2.92;;;;;;;;;;5073284;28;20552;-44
2024/01/05 12:30:58;;;;;;;39.53;3.70;;;;;;;;;;5073236;28;20024;-46
2024/01/05 12:33:25;;;;;;;85.70;7.80;;;;;;;;;;5073201;28;20033;-44
2024/01/05 12:35:52;;;;;;;54.72;6.30;;;;;;;;;;5073215;28;20071;-45
2024/01/05 12:38:26;;;;;;;38.65;4.03;;;;;;;;;;5072997;28;20161;-45
2024/01/05 12:40:54;;;;;;;42.35;4.20;;;;;;;;;;5073209;28;20094;-44
2024/01/05 12:43:22;;;;;;;25.20;3.25;;;;;;;;;;5072908;28;20112;-43
2024/01/05 12:45:49;;;;;;;21.08;2.67;;;;;;;;;;5073011;28;20040;-43
2024/01/05 12:48:17;;;;;;;30.98;3.10;;;;;;;;;;5072670;28;20040;-44
2024/01/05 12:50:44;;;;;;;46.88;4.47;;;;;;;;;;5072767;28;20032;-44
2024/01/05 12:53:29;;;;;;;244.48;15.32;;;;;;;;;;5072875;28;20538;-43
2024/01/05 12:55:56;;;;;;;161.00;11.05;;;;;;;;;;5072653;28;20021;-48
2024/01/05 12:58:23;;;;;;;111.30;7.70;;;;;;;;;;5072665;28;20028;-45
2024/01/05 13:00:52;;;;;;;62.10;5.75;;;;;;;;;;5072548;28;20494;-45
2024/01/05 13:03:19;;;;;;;66.07;5.72;;;;;;;;;;5072571;28;20058;-49
2024/01/05 13:05:47;;;;;;;51.65;4.95;;;;;;;;;;5071574;28;20048;-47
2024/01/05 13:08:14;;;;;;;26.70;3.05;;;;;;;;;;5072626;28;20028;-46
2024/01/05 13:10:41;;;;;;;34.50;3.00;;;;;;;;;;5072519;28;20032;-48
2024/01/05 13:13:08;;;;;;;21.77;2.35;;;;;;;;;;5072349;28;20044;-46
2024/01/05 13:15:35;;;;;;;10.70;2.10;;;;;;;;;;5072438;28;20028;-46
2024/01/05 13:18:03;;;;;;;17.77;2.10;;;;;;;;;;5072139;28;20032;-47
2024/01/05 13:20:30;;;;;;;19.63;2.58;;;;;;;;;;5072244;28;20154;-47
2024/01/05 13:23:00;;;;;;;14.93;2.30;;;;;;;;;;5072156;28;20028;-47
2024/01/05 13:25:27;;;;;;;15.43;2.20;;;;;;;;;;5072307;28;20425;-46
2024/01/05 13:27:54;;;;;;;12.43;2.42;;;;;;;;;;5072100;28;20043;-47
2024/01/05 13:30:22;;;;;;;23.55;2.55;;;;;;;;;;5072208;28;20037;-53
2024/01/05 13:32:50;;;;;;;19.38;2.80;;;;;;;;;;5071954;28;20413;-48
2024/01/05 13:35:17;;;;;;;24.00;2.22;;;;;;;;;;5072223;28;20055;-52
2024/01/05 13:37:44;;;;;;;19.17;2.30;;;;;;;;;;5075546;28;20024;-49
2024/01/05 13:40:11;;;;;;;15.00;2.70;;;;;;;;;;5092055;28;20127;-53
2024/01/05 13:42:38;;;;;;;15.93;2.05;;;;;;;;;;5091920;28;20082;-53
2024/01/05 13:45:06;;;;;;;19.60;2.40;;;;;;;;;;5092015;28;20061;-50
2024/01/05 13:47:34;;;;;;;16.23;2.40;;;;;;;;;;5091635;28;20059;-52
2024/01/05 13:50:01;;;;;;;18.75;2.55;;;;;;;;;;5089967;28;20568;-53
2024/01/05 13:52:28;;;;;;;21.75;2.53;;;;;;;;;;5081053;28;20019;-50
2024/01/05 13:54:55;;;;;;;17.77;2.05;;;;;;;;;;5091804;28;20453;-52
2024/01/05 13:57:22;;;;;;;20.58;2.20;;;;;;;;;;5098040;28;20435;-54
2024/01/05 13:59:50;;;;;;;19.98;2.78;;;;;;;;;;5098153;28;20043;-54
2024/01/05 14:02:18;;;;;;;23.88;3.03;;;;;;;;;;5075458;28;20025;-53
2024/01/05 14:04:45;;;;;;;19.30;2.10;;;;;;;;;;5085207;28;20093;-46
2024/01/05 14:07:12;;;;;;;20.27;2.25;;;;;;;;;;5091515;28;20032;-53
2024/01/05 14:09:41;;;;;;;18.38;2.22;;;;;;;;;;5091512;28;20055;-49
2024/01/05 14:12:08;;;;;;;23.20;2.83;;;;;;;;;;5091479;28;20028;-51
2024/01/05 14:14:35;;;;;;;19.13;2.40;;;;;;;;;;5091389;28;20059;-50
2024/01/05 14:17:03;;;;;;;25.23;2.42;;;;;;;;;;5091275;28;20059;-51
2024/01/05 14:19:30;;;;;;;20.02;2.13;;;;;;;;;;5091278;28;20040;-52
2024/01/05 14:22:00;;;;;;;14.35;2.33;;;;;;;;;;5091424;28;20040;-50
2024/01/05 14:24:27;;;;;;;16.98;2.28;;;;;;;;;;5091227;28;20070;-47
2024/01/05 14:26:54;;;;;;;19.73;2.50;;;;;;;;;;5086293;28;20112;-49
2024/01/05 14:29:21;;;;;;;19.15;2.35;;;;;;;;;;5083724;28;20039;-51
2024/01/05 14:31:48;;;;;;;13.07;2.28;;;;;;;;;;5084476;28;20028;-48
2024/01/05 14:34:15;;;;;;;16.63;1.90;;;;;;;;;;5083441;28;20371;-46
2024/01/05 14:36:42;;;;;;;18.13;2.53;;;;;;;;;;5086368;28;20034;-51
2024/01/05 14:39:09;;;;;;;10.45;1.83;;;;;;;;;;5072693;28;20035;-52
2024/01/05 14:41:36;;;;;;;11.95;2.35;;;;;;;;;;5077455;28;20043;-55